createdAt,value
2022-08-02T00:01:03.199Z,91.17
2022-08-02T00:02:05.685Z,91.64
2022-08-02T00:03:08.993Z,91.58
2022-08-02T00:04:11.535Z,91.54
2022-08-02T00:05:15.217Z,91.68
2022-08-02T00:06:17.504Z,91.30
2022-08-02T00:07:20.730Z,91.77
2022-08-02T00:08:23.072Z,91.52
2022-08-02T00:09:26.422Z,91.41
2022-08-02T00:10:28.726Z,91.82
2022-08-02T00:11:34.069Z,91.50
2022-08-02T00:12:36.670Z,91.57
2022-08-02T00:13:40.021Z,91.55
2022-08-02T00:14:42.482Z,91.46
2022-08-02T00:15:47.022Z,91.98
2022-08-02T00:16:49.353Z,91.86
2022-08-02T00:17:52.657Z,91.90
2022-08-02T00:18:55.132Z,92.09
2022-08-02T00:19:58.372Z,91.91
2022-08-02T00:21:00.573Z,92.13
2022-08-02T00:22:03.745Z,92.29
2022-08-02T00:23:07.061Z,92.23
2022-08-02T00:24:29.802Z,92.00
2022-08-02T00:25:32.802Z,92.24
2022-08-02T00:26:35.055Z,91.86
2022-08-02T00:27:38.316Z,91.89
2022-08-02T00:28:40.686Z,92.05
2022-08-02T00:29:53.099Z,92.13
2022-08-02T00:30:59.035Z,92.60
2022-08-02T00:32:02.478Z,92.34
2022-08-02T00:33:05.731Z,92.63
2022-08-02T00:34:28.495Z,92.31
2022-08-02T00:35:31.474Z,92.45
2022-08-02T00:36:34.731Z,92.52
2022-08-02T00:37:39.752Z,92.64
2022-08-02T00:38:43.248Z,92.38
2022-08-02T00:39:45.398Z,92.67
2022-08-02T00:40:49.079Z,92.68
2022-08-02T00:41:53.029Z,92.62
2022-08-02T00:43:04.333Z,92.55
2022-08-02T00:44:06.470Z,92.63
2022-08-02T00:45:10.460Z,92.77
2022-08-02T00:46:14.329Z,92.89
2022-08-02T00:47:19.431Z,92.68
2022-08-02T00:48:22.056Z,92.45
2022-08-02T00:49:25.218Z,92.63
2022-08-02T00:50:27.741Z,92.83
2022-08-02T00:51:30.905Z,92.80
2022-08-02T00:52:33.017Z,92.98
2022-08-02T00:53:36.458Z,92.94
2022-08-02T00:54:38.540Z,93.14
2022-08-02T00:55:41.689Z,92.91
2022-08-02T00:56:49.648Z,93.31
2022-08-02T00:57:54.918Z,93.22
2022-08-02T00:58:57.142Z,93.41
2022-08-02T01:00:00.275Z,93.50
2022-08-02T01:01:03.652Z,93.43
2022-08-02T01:02:08.390Z,93.21
2022-08-02T01:03:10.638Z,93.44
2022-08-02T01:04:15.399Z,93.09
2022-08-02T01:05:46.952Z,93.17
2022-08-02T01:06:56.092Z,93.61
2022-08-02T01:07:58.347Z,93.56
2022-08-02T01:09:02.000Z,93.50
2022-08-02T01:10:05.123Z,93.53
2022-08-02T01:11:08.679Z,93.23
2022-08-02T01:12:12.069Z,93.46
2022-08-02T01:13:15.589Z,93.65
2022-08-02T01:14:18.877Z,93.49
2022-08-02T01:15:23.632Z,93.22
2022-08-02T01:16:43.253Z,93.72
2022-08-02T01:17:53.743Z,93.72
2022-08-02T01:19:01.664Z,93.36
2022-08-02T01:20:13.296Z,93.72
2022-08-02T01:21:32.785Z,93.83
2022-08-02T01:23:03.596Z,93.67
2022-08-02T01:24:21.160Z,94.17
2022-08-02T01:25:46.080Z,93.75
2022-08-02T01:26:52.990Z,93.75
2022-08-02T01:28:37.367Z,94.24
2022-08-02T01:29:43.827Z,94.09
2022-08-02T01:30:50.026Z,93.79
2022-08-02T01:32:00.467Z,93.93
2022-08-02T01:33:06.900Z,94.29
2022-08-02T01:34:17.741Z,93.86
2022-08-02T01:35:25.343Z,94.50
2022-08-02T01:36:34.195Z,94.29
2022-08-02T01:37:43.306Z,94.26
2022-08-02T01:38:49.683Z,94.45
2022-08-02T01:39:57.843Z,94.51
2022-08-02T01:41:03.928Z,94.16
2022-08-02T01:42:08.729Z,94.49
2022-08-02T01:43:12.604Z,94.55
2022-08-02T01:44:20.095Z,94.43
2022-08-02T01:45:33.239Z,94.34
2022-08-02T01:46:39.687Z,94.54
2022-08-02T01:47:44.300Z,94.76
2022-08-02T01:48:49.729Z,94.40
2022-08-02T01:49:54.685Z,94.46
2022-08-02T01:51:00.269Z,94.74
2022-08-02T01:52:22.465Z,95.10
2022-08-02T01:53:29.159Z,95.31
2022-08-02T01:54:33.720Z,95.18
2022-08-02T01:55:57.555Z,95.16
2022-08-02T01:57:03.087Z,95.00
2022-08-02T01:58:09.196Z,95.29
2022-08-02T01:59:14.176Z,95.07
2022-08-02T02:00:20.907Z,94.99
2022-08-02T02:01:23.983Z,94.98
2022-08-02T02:02:31.804Z,95.55
2022-08-02T02:03:35.775Z,95.68
2022-08-02T02:04:46.943Z,95.20
2022-08-02T02:05:50.563Z,95.31
2022-08-02T02:06:55.036Z,95.24
2022-08-02T02:07:59.036Z,95.13
2022-08-02T02:09:04.018Z,95.14
2022-08-02T02:10:09.206Z,95.36
2022-08-02T02:12:14.713Z,95.46
2022-08-02T02:12:39.491Z,95.61
2022-08-02T02:13:43.807Z,95.41
2022-08-02T02:14:51.393Z,95.54
2022-08-02T02:15:58.685Z,95.85
2022-08-02T02:17:02.994Z,95.49
2022-08-02T02:18:13.281Z,95.90
2022-08-02T02:19:20.917Z,95.57
2022-08-02T02:20:25.321Z,95.84
2022-08-02T02:21:27.504Z,96.01
2022-08-02T02:22:30.816Z,96.06
2022-08-02T02:23:35.598Z,95.83
2022-08-02T02:24:39.209Z,95.71
2022-08-02T02:25:46.451Z,96.32
2022-08-02T02:26:52.561Z,96.17
2022-08-02T02:28:00.017Z,95.84
2022-08-02T02:29:04.325Z,96.17
2022-08-02T02:30:07.964Z,96.00
2022-08-02T02:31:15.267Z,96.26
2022-08-02T02:32:18.799Z,96.17
2022-08-02T02:33:27.670Z,96.36
2022-08-02T02:34:34.238Z,96.05
2022-08-02T02:35:39.023Z,96.31
2022-08-02T02:36:45.867Z,96.14
2022-08-02T02:37:50.818Z,96.21
2022-08-02T02:38:54.333Z,96.12
2022-08-02T02:39:59.301Z,96.32
2022-08-02T02:41:03.400Z,96.58
2022-08-02T02:42:10.162Z,96.21
2022-08-02T02:43:12.942Z,96.00
2022-08-02T02:44:20.504Z,96.56
2022-08-02T02:45:24.292Z,96.56
2022-08-02T02:46:31.182Z,96.56
2022-08-02T02:47:40.743Z,96.65
2022-08-02T02:48:45.473Z,96.31
2022-08-02T02:49:49.163Z,96.35
2022-08-02T02:50:52.651Z,96.51
2022-08-02T02:51:56.134Z,96.59
2022-08-02T02:53:00.318Z,96.59
2022-08-02T02:54:30.715Z,96.52
2022-08-02T02:55:27.855Z,96.40
2022-08-02T02:56:30.514Z,96.53
2022-08-02T02:57:34.434Z,96.93
2022-08-02T02:58:38.298Z,96.78
2022-08-02T02:59:49.195Z,96.80
2022-08-02T03:01:10.779Z,97.03
2022-08-02T03:02:15.933Z,97.17
2022-08-02T03:03:19.732Z,97.02
2022-08-02T03:04:26.181Z,97.21
2022-08-02T03:05:28.550Z,96.76
2022-08-02T03:06:32.039Z,97.28
2022-08-02T03:07:34.648Z,96.99
2022-08-02T03:08:37.856Z,96.93
2022-08-02T03:09:40.029Z,97.18
2022-08-02T03:10:44.202Z,97.33
2022-08-02T03:11:46.766Z,96.94
2022-08-02T03:12:50.548Z,97.20
2022-08-02T03:13:53.514Z,97.02
2022-08-02T03:14:56.796Z,97.16
2022-08-02T03:16:02.026Z,97.04
2022-08-02T03:17:05.322Z,97.23
2022-08-02T03:18:09.817Z,97.20
2022-08-02T03:19:12.143Z,97.00
2022-08-02T03:20:17.731Z,97.07
2022-08-02T03:21:19.916Z,97.21
2022-08-02T03:22:23.049Z,97.48
2022-08-02T03:23:25.140Z,97.51
2022-08-02T03:24:28.583Z,97.32
2022-08-02T03:25:30.843Z,97.56
2022-08-02T03:26:33.965Z,97.29
2022-08-02T03:27:36.131Z,97.34
2022-08-02T03:28:39.488Z,97.49
2022-08-02T03:29:41.617Z,97.56
2022-08-02T03:30:44.779Z,97.24
2022-08-02T03:31:46.962Z,97.60
2022-08-02T03:32:50.259Z,97.31
2022-08-02T03:33:54.255Z,97.59
2022-08-02T03:34:57.911Z,97.24
2022-08-02T03:36:05.343Z,97.46
2022-08-02T03:37:10.415Z,97.53
2022-08-02T03:38:13.635Z,97.46
2022-08-02T03:39:18.861Z,97.33
2022-08-02T03:40:21.744Z,97.82
2022-08-02T03:41:25.686Z,97.30
2022-08-02T03:42:28.889Z,97.58
2022-08-02T03:43:32.449Z,97.44
2022-08-02T03:44:35.597Z,97.67
2022-08-02T03:45:41.067Z,97.70
2022-08-02T03:46:44.616Z,97.44
2022-08-02T03:47:48.056Z,97.62
2022-08-02T03:48:51.708Z,97.58
2022-08-02T03:49:57.148Z,97.77
2022-08-02T03:50:59.994Z,97.55
2022-08-02T03:52:04.072Z,97.91
2022-08-02T03:53:06.595Z,97.57
2022-08-02T03:54:34.806Z,97.70
2022-08-02T03:55:48.726Z,97.32
2022-08-02T03:56:50.994Z,97.11
2022-08-02T03:57:54.309Z,97.28
2022-08-02T03:59:07.027Z,97.54
2022-08-02T04:00:13.094Z,97.45
2022-08-02T04:01:17.535Z,97.37
2022-08-02T04:02:19.702Z,97.34
2022-08-02T04:03:23.145Z,97.60
2022-08-02T04:04:25.299Z,97.64
2022-08-02T04:05:29.784Z,97.42
2022-08-02T04:06:32.208Z,97.38
2022-08-02T04:08:34.178Z,97.56
2022-08-02T04:08:58.545Z,97.26
2022-08-02T04:10:00.819Z,97.46
2022-08-02T04:11:21.429Z,97.47
2022-08-02T04:12:24.656Z,97.56
2022-08-02T04:13:31.850Z,97.56
2022-08-02T04:14:39.318Z,97.55
2022-08-02T04:15:41.865Z,97.31
2022-08-02T04:16:48.012Z,97.59
2022-08-02T04:17:53.017Z,97.51
2022-08-02T04:19:04.834Z,97.44
2022-08-02T04:20:13.015Z,97.47
2022-08-02T04:21:20.570Z,97.29
2022-08-02T04:22:28.669Z,97.12
2022-08-02T04:23:33.222Z,97.56
2022-08-02T04:24:40.687Z,97.41
2022-08-02T04:25:44.485Z,97.14
2022-08-02T04:26:49.904Z,97.44
2022-08-02T04:28:17.797Z,97.31
2022-08-02T04:29:18.255Z,97.36
2022-08-02T04:30:21.498Z,97.57
2022-08-02T04:31:25.387Z,97.44
2022-08-02T04:32:28.000Z,97.14
2022-08-02T04:33:32.284Z,97.56
2022-08-02T04:34:34.623Z,97.41
2022-08-02T04:35:37.921Z,97.67
2022-08-02T04:36:41.540Z,97.33
2022-08-02T04:38:05.575Z,97.42
2022-08-02T04:39:08.507Z,97.32
2022-08-02T04:40:12.156Z,97.52
2022-08-02T04:41:15.697Z,97.40
2022-08-02T04:42:22.010Z,97.55
2022-08-02T04:43:25.498Z,97.64
2022-08-02T04:44:28.669Z,97.97
2022-08-02T04:45:31.086Z,97.95
2022-08-02T04:46:34.628Z,97.56
2022-08-02T04:47:54.348Z,97.79
2022-08-02T04:49:00.116Z,97.85
2022-08-02T04:50:04.785Z,97.76
2022-08-02T04:51:07.911Z,97.71
2022-08-02T04:52:11.701Z,98.09
2022-08-02T04:53:15.104Z,97.65
2022-08-02T04:54:18.315Z,98.25
2022-08-02T04:55:20.529Z,98.31
2022-08-02T04:56:25.366Z,98.26
2022-08-02T04:57:52.373Z,97.94
2022-08-02T04:58:56.276Z,98.35
2022-08-02T04:59:58.493Z,97.87
2022-08-02T05:01:01.660Z,98.19
2022-08-02T05:02:03.884Z,98.04
2022-08-02T05:03:07.085Z,98.12
2022-08-02T05:04:09.335Z,97.99
2022-08-02T05:05:12.486Z,98.16
2022-08-02T05:06:19.248Z,97.95
2022-08-02T05:07:24.247Z,98.03
2022-08-02T05:08:26.435Z,98.47
2022-08-02T05:09:29.574Z,98.42
2022-08-02T05:10:31.756Z,98.07
2022-08-02T05:11:36.588Z,98.06
2022-08-02T05:12:39.682Z,98.24
2022-08-02T05:13:58.495Z,98.41
2022-08-02T05:15:02.636Z,98.34
2022-08-02T05:16:05.570Z,98.00
2022-08-02T05:17:08.672Z,98.31
2022-08-02T05:18:12.381Z,98.46
2022-08-02T05:19:16.559Z,97.90
2022-08-02T05:20:19.499Z,98.46
2022-08-02T05:21:22.621Z,98.10
2022-08-02T05:22:26.250Z,98.10
2022-08-02T05:23:29.457Z,98.29
2022-08-02T05:24:31.634Z,98.25
2022-08-02T05:25:34.791Z,98.21
2022-08-02T05:26:36.906Z,98.03
2022-08-02T05:27:40.072Z,97.89
2022-08-02T05:28:43.227Z,97.82
2022-08-02T05:29:53.031Z,97.80
2022-08-02T05:30:57.372Z,97.90
2022-08-02T05:31:59.544Z,97.97
2022-08-02T05:33:02.665Z,98.12
2022-08-02T05:34:07.573Z,97.97
2022-08-02T05:35:15.138Z,98.02
2022-08-02T05:36:17.294Z,97.60
2022-08-02T05:37:20.980Z,97.66
2022-08-02T05:38:26.148Z,97.50
2022-08-02T05:39:31.924Z,97.44
2022-08-02T05:40:34.107Z,97.47
2022-08-02T05:41:37.293Z,97.49
2022-08-02T05:42:39.414Z,97.27
2022-08-02T05:43:42.481Z,96.89
2022-08-02T05:44:44.670Z,96.98
2022-08-02T05:45:47.732Z,96.86
2022-08-02T05:46:49.887Z,96.60
2022-08-02T05:47:53.658Z,96.76
2022-08-02T05:48:56.031Z,96.25
2022-08-02T05:49:59.630Z,96.39
2022-08-02T05:51:05.680Z,96.05
2022-08-02T05:52:16.039Z,95.38
2022-08-02T05:53:29.961Z,95.44
2022-08-02T05:54:40.253Z,95.47
2022-08-02T05:55:49.270Z,94.63
2022-08-02T05:56:55.065Z,94.66
2022-08-02T05:58:03.951Z,94.40
2022-08-02T05:59:13.948Z,94.11
2022-08-02T06:00:18.104Z,94.24
2022-08-02T06:01:29.725Z,94.21
2022-08-02T06:02:45.246Z,93.88
2022-08-02T06:03:52.233Z,93.30
2022-08-02T06:05:00.634Z,93.41
2022-08-02T06:06:07.527Z,92.80
2022-08-02T06:07:12.030Z,92.79
2022-08-02T06:08:15.185Z,92.62
2022-08-02T06:09:23.028Z,92.10
2022-08-02T06:10:30.566Z,92.05
2022-08-02T06:11:36.930Z,91.58
2022-08-02T06:12:46.697Z,91.64
2022-08-02T06:13:49.377Z,91.45
2022-08-02T06:14:54.644Z,91.03
2022-08-02T06:16:00.945Z,90.93
2022-08-02T06:17:05.207Z,90.60
2022-08-02T06:18:09.130Z,90.53
2022-08-02T06:19:13.985Z,90.27
2022-08-02T06:20:16.707Z,89.78
2022-08-02T06:22:32.244Z,89.64
2022-08-02T06:22:46.433Z,89.09
2022-08-02T06:23:57.793Z,88.74
2022-08-02T06:25:04.519Z,88.48
2022-08-02T06:26:09.039Z,87.98
2022-08-02T06:27:13.520Z,87.55
2022-08-02T06:28:18.087Z,87.25
2022-08-02T06:29:21.077Z,87.02
2022-08-02T06:30:26.909Z,87.09
2022-08-02T06:31:30.578Z,86.60
2022-08-02T06:32:33.582Z,86.38
2022-08-02T06:33:36.843Z,86.02
2022-08-02T06:34:39.735Z,85.28
2022-08-02T06:35:47.595Z,85.54
2022-08-02T06:36:55.643Z,84.95
2022-08-02T06:38:01.901Z,84.90
2022-08-02T06:39:09.517Z,84.39
2022-08-02T06:40:24.698Z,84.03
2022-08-02T06:41:29.430Z,84.06
2022-08-02T06:42:43.562Z,83.61
2022-08-02T06:43:53.706Z,83.51
2022-08-02T06:44:57.994Z,83.28
2022-08-02T06:46:37.713Z,82.58
2022-08-02T06:47:24.836Z,82.06
2022-08-02T06:48:28.056Z,82.05
2022-08-02T06:49:51.964Z,81.62
2022-08-02T06:50:53.581Z,81.18
2022-08-02T06:51:55.810Z,81.41
2022-08-02T06:52:59.018Z,80.87
2022-08-02T06:54:01.309Z,80.48
2022-08-02T06:55:06.796Z,80.51
2022-08-02T06:56:10.479Z,79.96
2022-08-02T06:57:14.536Z,78.83
2022-08-02T06:58:17.746Z,79.12
2022-08-02T06:59:19.900Z,79.03
2022-08-02T07:00:23.041Z,78.89
2022-08-02T07:01:25.362Z,78.83
2022-08-02T07:02:28.589Z,78.53
2022-08-02T07:03:31.113Z,78.28
2022-08-02T07:04:34.970Z,77.94
2022-08-02T07:05:38.662Z,77.98
2022-08-02T07:06:40.871Z,77.58
2022-08-02T07:07:44.101Z,77.79
2022-08-02T07:09:04.915Z,77.52
2022-08-02T07:10:10.217Z,77.24
2022-08-02T07:11:14.762Z,76.83
2022-08-02T07:12:16.982Z,76.98
2022-08-02T07:13:20.171Z,76.77
2022-08-02T07:14:22.319Z,76.54
2022-08-02T07:15:25.544Z,76.25
2022-08-02T07:16:27.695Z,76.30
2022-08-02T07:17:31.281Z,75.64
2022-08-02T07:18:35.101Z,75.58
2022-08-02T07:19:38.615Z,75.10
2022-08-02T07:20:41.044Z,74.94
2022-08-02T07:21:56.609Z,74.84
2022-08-02T07:23:02.832Z,74.43
2022-08-02T07:24:05.379Z,74.33
2022-08-02T07:25:09.605Z,74.33
2022-08-02T07:26:13.121Z,74.10
2022-08-02T07:27:16.368Z,74.11
2022-08-02T07:28:24.019Z,73.58
2022-08-02T07:29:27.042Z,72.77
2022-08-02T07:30:36.257Z,72.81
2022-08-02T07:31:38.454Z,72.78
2022-08-02T07:32:44.649Z,72.81
2022-08-02T07:33:47.188Z,72.60
2022-08-02T07:34:53.494Z,72.57
2022-08-02T07:35:58.768Z,72.11
2022-08-02T07:37:03.962Z,71.99
2022-08-02T07:38:09.277Z,71.62
2022-08-02T07:39:11.451Z,71.42
2022-08-02T07:40:19.876Z,70.01
2022-08-02T07:41:25.946Z,70.38
2022-08-02T07:42:29.476Z,70.30
2022-08-02T07:43:32.682Z,69.74
2022-08-02T07:44:34.916Z,69.69
2022-08-02T07:45:45.792Z,69.59
2022-08-02T07:46:59.548Z,69.46
2022-08-02T07:48:02.942Z,68.64
2022-08-02T07:49:05.148Z,68.59
2022-08-02T07:50:09.860Z,68.15
2022-08-02T07:51:16.987Z,68.13
2022-08-02T07:52:20.502Z,68.16
2022-08-02T07:53:30.638Z,67.90
2022-08-02T07:54:47.289Z,68.16
2022-08-02T07:55:50.456Z,68.10
2022-08-02T07:56:58.372Z,68.13
2022-08-02T07:58:02.462Z,68.03
2022-08-02T07:59:05.226Z,67.83
2022-08-02T08:00:09.767Z,67.82
2022-08-02T08:01:14.719Z,67.72
2022-08-02T08:02:17.910Z,67.81
2022-08-02T08:03:20.403Z,67.60
2022-08-02T08:04:23.714Z,67.48
2022-08-02T08:05:25.857Z,67.46
2022-08-02T08:06:29.478Z,67.06
2022-08-02T08:07:31.695Z,65.78
2022-08-02T08:08:35.759Z,66.36
2022-08-02T08:09:41.201Z,66.41
2022-08-02T08:10:43.524Z,66.14
2022-08-02T08:11:46.638Z,65.84
2022-08-02T08:12:50.227Z,65.79
2022-08-02T08:13:53.413Z,65.74
2022-08-02T08:14:55.765Z,65.54
2022-08-02T08:15:58.984Z,65.29
2022-08-02T08:17:02.442Z,65.48
2022-08-02T08:18:04.730Z,65.34
2022-08-02T08:19:07.990Z,65.59
2022-08-02T08:20:15.418Z,65.83
2022-08-02T08:21:19.241Z,65.90
2022-08-02T08:22:21.611Z,65.28
2022-08-02T08:23:24.894Z,65.11
2022-08-02T08:24:27.188Z,64.95
2022-08-02T08:25:30.366Z,64.59
2022-08-02T08:26:32.634Z,64.72
2022-08-02T08:27:35.848Z,64.65
2022-08-02T08:28:40.393Z,64.50
2022-08-02T08:29:43.007Z,64.25
2022-08-02T08:30:47.404Z,64.03
2022-08-02T08:31:49.822Z,64.13
2022-08-02T08:32:53.115Z,63.85
2022-08-02T08:33:56.901Z,64.08
2022-08-02T08:34:59.469Z,64.03
2022-08-02T08:36:02.809Z,64.51
2022-08-02T08:37:06.372Z,64.10
2022-08-02T08:38:09.696Z,63.90
2022-08-02T08:39:12.886Z,63.68
2022-08-02T08:40:19.327Z,63.23
2022-08-02T08:41:22.978Z,62.56
2022-08-02T08:42:25.199Z,62.47
2022-08-02T08:43:28.364Z,62.04
2022-08-02T08:44:33.241Z,61.53
2022-08-02T08:45:36.881Z,60.91
2022-08-02T08:46:43.406Z,60.49
2022-08-02T08:47:52.212Z,60.16
2022-08-02T08:49:01.169Z,60.21
2022-08-02T08:50:05.860Z,60.00
2022-08-02T08:51:12.914Z,60.16
2022-08-02T08:52:16.510Z,60.24
2022-08-02T08:53:21.400Z,60.05
2022-08-02T08:54:42.156Z,59.40
2022-08-02T08:55:44.931Z,59.99
2022-08-02T08:56:48.504Z,59.30
2022-08-02T08:57:51.354Z,58.62
2022-08-02T08:58:54.492Z,58.25
2022-08-02T08:59:58.448Z,56.97
2022-08-02T09:01:01.741Z,57.11
2022-08-02T09:02:16.833Z,56.88
2022-08-02T09:03:24.752Z,56.56
2022-08-02T09:04:27.161Z,56.38
2022-08-02T09:05:30.313Z,55.97
2022-08-02T09:06:32.528Z,55.72
2022-08-02T09:07:35.726Z,55.49
2022-08-02T09:08:38.953Z,55.23
2022-08-02T09:09:41.148Z,55.14
2022-08-02T09:10:46.076Z,55.34
2022-08-02T09:11:49.336Z,55.61
2022-08-02T09:13:37.504Z,55.81
2022-08-02T09:14:32.759Z,55.90
2022-08-02T09:15:36.495Z,56.08
2022-08-02T09:16:41.395Z,56.23
2022-08-02T09:17:50.897Z,55.85
2022-08-02T09:18:54.054Z,55.44
2022-08-02T09:20:07.949Z,55.28
2022-08-02T09:21:11.487Z,55.12
2022-08-02T09:22:16.278Z,54.96
2022-08-02T09:23:18.950Z,54.16
2022-08-02T09:24:23.748Z,53.88
2022-08-02T09:25:25.926Z,53.58
2022-08-02T09:26:29.431Z,53.48
2022-08-02T09:27:37.821Z,54.17
2022-08-02T09:28:41.662Z,54.23
2022-08-02T09:30:11.656Z,54.20
2022-08-02T09:31:13.558Z,54.04
2022-08-02T09:32:17.948Z,53.83
2022-08-02T09:33:27.462Z,52.07
2022-08-02T09:34:45.277Z,52.53
2022-08-02T09:36:06.548Z,52.42
2022-08-02T09:37:23.316Z,52.92
2022-08-02T09:38:26.464Z,52.89
2022-08-02T09:39:47.598Z,52.77
2022-08-02T09:40:50.156Z,52.83
2022-08-02T09:41:53.397Z,52.71
2022-08-02T09:42:59.339Z,52.21
2022-08-02T09:44:06.435Z,52.40
2022-08-02T09:45:10.296Z,52.24
2022-08-02T09:46:17.174Z,52.37
2022-08-02T09:47:19.295Z,52.55
2022-08-02T09:48:22.776Z,52.28
2022-08-02T09:49:26.149Z,52.15
2022-08-02T09:50:29.627Z,51.79
2022-08-02T09:51:34.759Z,51.61
2022-08-02T09:52:43.697Z,51.33
2022-08-02T09:53:48.741Z,51.50
2022-08-02T09:54:52.178Z,51.38
2022-08-02T09:55:56.204Z,51.68
2022-08-02T09:57:01.076Z,51.79
2022-08-02T09:58:19.097Z,51.60
2022-08-02T09:59:25.360Z,51.71
2022-08-02T10:00:50.878Z,51.68
2022-08-02T10:02:01.273Z,51.69
2022-08-02T10:03:09.418Z,51.72
2022-08-02T10:04:22.519Z,51.82
2022-08-02T10:05:30.129Z,51.55
2022-08-02T10:06:38.756Z,51.25
2022-08-02T10:07:41.989Z,51.26
2022-08-02T10:08:45.479Z,51.41
2022-08-02T10:09:49.173Z,51.45
2022-08-02T10:11:00.375Z,51.39
2022-08-02T10:12:04.871Z,51.37
2022-08-02T10:13:07.369Z,51.21
2022-08-02T10:14:11.890Z,50.63
2022-08-02T10:15:14.868Z,50.08
2022-08-02T10:16:19.751Z,49.76
2022-08-02T10:17:25.337Z,49.79
2022-08-02T10:18:38.848Z,49.86
2022-08-02T10:20:00.067Z,50.03
2022-08-02T10:21:07.567Z,49.81
2022-08-02T10:22:12.779Z,49.37
2022-08-02T10:23:16.160Z,48.87
2022-08-02T10:24:22.210Z,49.37
2022-08-02T10:25:25.039Z,49.64
2022-08-02T10:26:28.568Z,49.76
2022-08-02T10:27:48.922Z,49.35
2022-08-02T10:28:55.353Z,49.41
2022-08-02T10:30:00.713Z,49.05
2022-08-02T10:31:06.499Z,48.76
2022-08-02T10:32:13.007Z,47.92
2022-08-02T10:33:20.176Z,46.86
2022-08-02T10:34:31.563Z,47.35
2022-08-02T10:35:37.700Z,46.87
2022-08-02T10:36:42.834Z,46.58
2022-08-02T10:37:47.920Z,46.24
2022-08-02T10:38:51.531Z,46.45
2022-08-02T10:39:56.557Z,46.85
2022-08-02T10:40:59.781Z,46.47
2022-08-02T10:42:02.930Z,46.45
2022-08-02T10:43:05.060Z,45.83
2022-08-02T10:44:08.287Z,45.70
2022-08-02T10:45:28.316Z,45.67
2022-08-02T10:46:33.293Z,45.56
2022-08-02T10:47:36.469Z,44.33
2022-08-02T10:49:36.138Z,44.14
2022-08-02T10:50:55.734Z,44.49
2022-08-02T10:52:07.071Z,44.71
2022-08-02T10:53:29.781Z,45.40
2022-08-02T10:54:34.513Z,44.90
2022-08-02T10:55:46.589Z,45.30
2022-08-02T10:56:51.102Z,45.10
2022-08-02T10:58:17.733Z,44.77
2022-08-02T10:59:29.247Z,44.44
2022-08-02T11:00:32.429Z,44.17
2022-08-02T11:01:43.895Z,44.20
2022-08-02T11:02:53.306Z,44.39
2022-08-02T11:03:59.541Z,44.02
2022-08-02T11:05:06.972Z,43.85
2022-08-02T11:06:24.986Z,44.18
2022-08-02T11:07:36.401Z,44.36
2022-08-02T11:08:40.199Z,44.25
2022-08-02T11:09:42.947Z,44.15
2022-08-02T11:10:46.528Z,44.11
2022-08-02T11:12:01.447Z,44.41
2022-08-02T11:13:10.493Z,44.07
2022-08-02T11:14:14.763Z,43.87
2022-08-02T11:15:20.032Z,44.37
2022-08-02T11:16:23.191Z,43.96
2022-08-02T11:17:28.902Z,43.96
2022-08-02T11:19:04.055Z,44.53
2022-08-02T11:20:19.015Z,44.34
2022-08-02T11:21:24.771Z,44.06
2022-08-02T11:22:28.069Z,43.89
2022-08-02T11:23:44.266Z,44.30
2022-08-02T11:24:49.313Z,43.98
2022-08-02T11:26:03.554Z,44.31
2022-08-02T11:27:09.034Z,44.12
2022-08-02T11:28:12.714Z,44.23
2022-08-02T11:29:16.346Z,44.41
2022-08-02T11:30:20.572Z,45.03
2022-08-02T11:31:29.306Z,44.65
2022-08-02T11:32:36.157Z,44.89
2022-08-02T11:33:38.852Z,44.54
2022-08-02T11:34:43.545Z,44.01
2022-08-02T11:35:47.181Z,44.41
2022-08-02T11:36:52.743Z,44.58
2022-08-02T11:37:55.352Z,44.47
2022-08-02T11:39:10.709Z,44.41
2022-08-02T11:40:18.994Z,44.35
2022-08-02T11:41:45.810Z,44.22
2022-08-02T11:42:50.399Z,43.25
2022-08-02T11:43:54.851Z,42.39
2022-08-02T11:44:58.102Z,41.99
2022-08-02T11:46:03.898Z,41.79
2022-08-02T11:47:08.411Z,41.31
2022-08-02T11:48:10.741Z,40.97
2022-08-02T11:49:16.173Z,41.03
2022-08-02T11:50:29.950Z,40.99
2022-08-02T11:51:34.148Z,41.24
2022-08-02T11:52:39.020Z,41.33
2022-08-02T11:53:50.162Z,41.14
2022-08-02T11:54:53.363Z,41.48
2022-08-02T11:55:57.436Z,41.26
2022-08-02T11:57:19.293Z,40.76
2022-08-02T11:58:23.442Z,40.98
2022-08-02T11:59:25.695Z,40.22
2022-08-02T12:00:30.579Z,40.14
2022-08-02T12:01:44.788Z,39.95
2022-08-02T12:02:49.862Z,40.49
2022-08-02T12:03:52.262Z,40.64
2022-08-02T12:04:58.422Z,40.17
2022-08-02T12:06:06.419Z,39.86
2022-08-02T12:07:15.334Z,40.10
2022-08-02T12:08:19.195Z,40.17
2022-08-02T12:09:27.603Z,40.50
2022-08-02T12:10:31.138Z,41.13
2022-08-02T12:11:39.175Z,41.50
2022-08-02T12:12:49.758Z,42.31
2022-08-02T12:13:57.064Z,41.37
2022-08-02T12:15:00.763Z,41.21
2022-08-02T12:16:25.750Z,41.17
2022-08-02T12:17:50.086Z,41.67
2022-08-02T12:19:22.353Z,41.25
2022-08-02T12:20:37.363Z,40.19
2022-08-02T12:21:40.682Z,40.08
2022-08-02T12:22:45.520Z,39.50
2022-08-02T12:24:00.131Z,38.91
2022-08-02T12:25:33.466Z,39.40
2022-08-02T12:26:44.451Z,39.28
2022-08-02T12:27:47.897Z,39.30
2022-08-02T12:28:57.526Z,39.69
2022-08-02T12:30:03.667Z,39.25
2022-08-02T12:31:08.436Z,39.56
2022-08-02T12:32:25.417Z,39.30
2022-08-02T12:33:30.369Z,39.41
2022-08-02T12:34:35.077Z,39.07
2022-08-02T12:35:37.337Z,39.55
2022-08-02T12:36:40.692Z,39.30
2022-08-02T12:37:47.561Z,39.87
2022-08-02T12:38:53.133Z,39.49
2022-08-02T12:39:56.320Z,38.97
2022-08-02T12:41:30.263Z,38.17
2022-08-02T12:42:46.525Z,38.41
2022-08-02T12:43:50.983Z,38.30
2022-08-02T12:44:54.560Z,38.83
2022-08-02T12:45:57.811Z,38.97
2022-08-02T12:47:02.026Z,38.39
2022-08-02T12:48:07.287Z,38.31
2022-08-02T12:49:18.398Z,38.52
2022-08-02T12:50:25.591Z,38.58
2022-08-02T12:51:50.955Z,37.83
2022-08-02T12:53:07.288Z,37.65
2022-08-02T12:54:18.075Z,37.82
2022-08-02T12:55:24.437Z,38.80
2022-08-02T12:56:28.389Z,37.98
2022-08-02T12:57:31.571Z,37.31
2022-08-02T12:58:49.658Z,37.05
2022-08-02T12:59:54.579Z,37.26
2022-08-02T13:00:58.894Z,37.52
2022-08-02T13:02:04.189Z,37.29
2022-08-02T13:04:07.862Z,37.69
2022-08-02T13:04:33.040Z,37.01
2022-08-02T13:05:56.572Z,37.18
2022-08-02T13:07:00.722Z,36.83
2022-08-02T13:08:05.006Z,37.39
2022-08-02T13:09:16.881Z,37.07
2022-08-02T13:10:21.596Z,37.52
2022-08-02T13:11:23.732Z,37.02
2022-08-02T13:12:26.881Z,37.04
2022-08-02T13:13:29.069Z,37.10
2022-08-02T13:14:39.868Z,36.76
2022-08-02T13:15:48.858Z,36.21
2022-08-02T13:16:54.091Z,36.22
2022-08-02T13:17:56.864Z,35.72
2022-08-02T13:19:00.291Z,36.00
2022-08-02T13:20:04.110Z,35.98
2022-08-02T13:21:07.377Z,35.75
2022-08-02T13:22:18.814Z,35.57
2022-08-02T13:23:23.390Z,35.34
2022-08-02T13:24:37.988Z,35.38
2022-08-02T13:25:42.882Z,35.84
2022-08-02T13:26:45.519Z,35.49
2022-08-02T13:27:48.643Z,35.41
2022-08-02T13:28:50.738Z,35.20
2022-08-02T13:29:55.377Z,35.26
2022-08-02T13:31:06.070Z,34.26
2022-08-02T13:32:21.205Z,34.77
2022-08-02T13:33:23.581Z,34.52
2022-08-02T13:34:27.286Z,34.18
2022-08-02T13:35:30.737Z,34.19
2022-08-02T13:36:33.914Z,34.13
2022-08-02T13:37:40.128Z,34.15
2022-08-02T13:38:43.966Z,33.73
2022-08-02T13:40:05.446Z,33.92
2022-08-02T13:41:10.730Z,34.06
2022-08-02T13:42:16.930Z,34.46
2022-08-02T13:43:20.343Z,34.30
2022-08-02T13:44:22.858Z,34.14
2022-08-02T13:45:26.341Z,34.55
2022-08-02T13:46:29.544Z,34.82
2022-08-02T13:47:36.270Z,34.44
2022-08-02T13:48:56.057Z,33.96
2022-08-02T13:49:58.325Z,34.31
2022-08-02T13:51:01.579Z,34.29
2022-08-02T13:52:03.769Z,33.86
2022-08-02T13:53:07.134Z,33.74
2022-08-02T13:54:10.728Z,33.56
2022-08-02T13:55:13.871Z,33.81
2022-08-02T13:56:18.081Z,33.50
2022-08-02T13:57:21.938Z,34.19
2022-08-02T13:58:25.168Z,34.20
2022-08-02T13:59:58.480Z,34.46
2022-08-02T14:00:50.569Z,34.78
2022-08-02T14:01:52.851Z,35.48
2022-08-02T14:02:56.130Z,34.92
2022-08-02T14:04:07.383Z,34.75
2022-08-02T14:05:12.299Z,35.14
2022-08-02T14:06:15.423Z,35.30
2022-08-02T14:07:17.645Z,35.30
2022-08-02T14:08:22.890Z,35.30
2022-08-02T14:09:27.641Z,34.91
2022-08-02T14:10:30.456Z,34.97
2022-08-02T14:11:34.187Z,34.85
2022-08-02T14:12:38.068Z,34.61
2022-08-02T14:13:40.333Z,34.77
2022-08-02T14:14:43.498Z,35.01
2022-08-02T14:15:46.108Z,34.88
2022-08-02T14:16:49.306Z,34.74